Terminal Aerodrome Forecast
Issued by NWS

Home | Current Version | Previous Version | Text Only | Print | Product List | Glossary On
Versions: 1 2 3 4 5 6 7 8 9 10 11 12 13 14 15 16 17 18
000
FTUS41 KPBZ 221700
TAFBVI
TAF
KBVI 221720Z 2218/2318 32010G16KT P6SM OVC035
     FM222300 30008KT P6SM BKN035
     FM230300 00000KT P6SM SKC
     FM231400 29004KT P6SM SCT250=

USA.gov is the U.S. government's official web portal to all federal, state and local government web resources and services.